createdAt,value
2024-01-20T13:37:43.941Z,23.8
2024-01-20T13:43:22.275Z,25.2
2024-01-20T13:49:03.305Z,23.7
2024-01-20T14:00:37.796Z,25.4
2024-01-20T14:06:17.707Z,23.7
2024-01-20T14:11:56.925Z,24.3
2024-01-20T14:17:35.652Z,25.4
2024-01-20T14:23:18.003Z,23.6
2024-01-20T14:29:00.580Z,24.3
2024-01-20T14:34:40.684Z,25.5
2024-01-20T14:40:19.185Z,23.1
2024-01-20T14:45:42.547Z,22.6
2024-01-20T14:51:23.061Z,22.1
2024-01-20T14:57:01.978Z,21.6
2024-01-20T15:02:43.745Z,21.3
2024-01-20T15:08:26.216Z,20.9
2024-01-20T15:14:06.408Z,20.5
2024-01-20T15:19:46.694Z,20.3
2024-01-20T15:25:27.496Z,19.9
2024-01-20T15:31:06.841Z,19.8
2024-01-20T15:36:49.876Z,19.6
2024-01-20T15:42:30.315Z,19.5
2024-01-20T15:48:08.729Z,19.3
2024-01-20T15:53:48.952Z,19.1
2024-01-20T15:59:12.416Z,18.9
2024-01-20T16:04:52.018Z,18.8
2024-01-20T16:10:33.600Z,18.6
2024-01-20T16:16:14.732Z,18.4
2024-01-20T16:21:55.558Z,18.2
2024-01-20T16:27:21.101Z,18
2024-01-20T16:32:29.935Z,17.9
2024-01-20T16:38:09.900Z,17.8
2024-01-20T16:43:51.189Z,17.9
2024-01-20T16:49:30.655Z,18.1
2024-01-20T16:55:13.469Z,18.3
2024-01-20T17:00:26.293Z,18.4
2024-01-20T17:10:59.348Z,18.8
2024-01-20T17:16:22.676Z,18.8
2024-01-20T17:21:47.142Z,18.8
2024-01-20T17:27:26.059Z,18.8
2024-01-20T17:32:35.939Z,18.9
2024-01-20T17:38:17.689Z,18.9
2024-01-20T17:43:41.395Z,18.9
2024-01-20T17:49:21.315Z,18.9
2024-01-20T17:54:29.125Z,18.9
2024-01-20T17:59:52.283Z,19.1
2024-01-20T18:05:05.325Z,19.1
2024-01-20T18:10:29.486Z,19.1
2024-01-20T18:16:07.728Z,18.9
2024-01-20T18:21:47.831Z,18.9
2024-01-20T18:27:26.598Z,19
2024-01-20T18:33:07.822Z,19.3
2024-01-20T18:38:47.530Z,19.5
2024-01-20T18:44:26.356Z,19.9
2024-01-20T18:49:52.756Z,20.3
2024-01-20T18:55:16.055Z,20.7
2024-01-20T19:00:55.018Z,21
2024-01-20T19:06:34.275Z,21.3
2024-01-20T19:17:24.235Z,21.2
2024-01-20T19:23:06.649Z,21.2
2024-01-20T19:29:01.718Z,21.3
2024-01-20T19:40:06.879Z,20.9
2024-01-20T19:45:48.257Z,20.8
2024-01-20T19:51:28.088Z,20.4
2024-01-20T19:57:07.260Z,20.2
2024-01-20T20:02:49.244Z,20.2
2024-01-20T20:08:29.042Z,20.6
2024-01-20T20:19:16.649Z,21.6
2024-01-20T20:24:56.418Z,22.1
2024-01-20T20:30:34.659Z,22.3
2024-01-20T20:36:39.549Z,22.2
2024-01-20T20:42:18.667Z,21.9
2024-01-20T20:47:58.078Z,21.6
2024-01-20T20:53:38.639Z,21.2
2024-01-20T20:59:19.427Z,20.8
2024-01-20T21:04:59.645Z,20.4
2024-01-20T21:10:07.888Z,20.1
2024-01-20T21:15:46.736Z,19.8
2024-01-20T21:21:11.849Z,19.5
2024-01-20T21:26:51.261Z,22.1
2024-01-20T21:32:31.093Z,29.1
2024-01-20T21:38:12.231Z,28.9
2024-01-20T21:43:50.685Z,28.3
2024-01-20T21:49:30.270Z,26.8
2024-01-20T21:55:09.466Z,25.8
2024-01-20T22:00:49.205Z,25.3
2024-01-20T22:06:28.669Z,24.6
2024-01-20T22:11:51.232Z,24.5
2024-01-20T22:17:30.046Z,23.9
2024-01-20T22:23:09.196Z,25.4
2024-01-20T22:28:47.648Z,26.6
2024-01-20T22:34:38.939Z,26.2
2024-01-20T22:40:18.830Z,25.2
2024-01-20T22:45:42.005Z,24.6
2024-01-20T22:51:22.810Z,24.3
2024-01-20T22:57:01.916Z,24.1
2024-01-20T23:02:41.576Z,26.3
2024-01-20T23:08:21.085Z,25.8
2024-01-20T23:14:02.454Z,25.3
2024-01-20T23:19:41.775Z,24.8
2024-01-20T23:25:21.484Z,24.4
2024-01-20T23:31:00.153Z,23.8
2024-01-20T23:36:39.952Z,24.6
2024-01-20T23:42:19.602Z,26.6
2024-01-20T23:47:58.734Z,25.2
2024-01-20T23:53:22.686Z,25
2024-01-20T23:58:45.993Z,24.4
